createdAt,value
2017-11-07T00:02:04.015Z,54.07
2017-11-07T00:04:32.302Z,60.63
2017-11-07T00:07:01.321Z,52.63
2017-11-07T00:09:29.574Z,56.03
2017-11-07T00:11:58.638Z,60.70
2017-11-07T00:14:27.800Z,59.00
2017-11-07T00:16:56.129Z,52.60
2017-11-07T00:19:24.377Z,61.00
2017-11-07T00:21:52.620Z,51.03
2017-11-07T00:24:20.910Z,52.77
2017-11-07T00:26:49.189Z,58.20
2017-11-07T00:29:17.469Z,52.97
2017-11-07T00:31:45.721Z,68.37
2017-11-07T00:34:14.742Z,43.80
2017-11-07T00:36:43.002Z,61.77
2017-11-07T00:39:12.036Z,53.60
2017-11-07T00:41:41.226Z,64.90
2017-11-07T00:44:09.455Z,56.77
2017-11-07T00:46:38.523Z,57.20
2017-11-07T00:49:06.760Z,49.40
2017-11-07T00:51:35.037Z,52.07
2017-11-07T00:54:03.343Z,47.40
2017-11-07T00:56:31.590Z,43.73
2017-11-07T00:58:59.837Z,55.23
2017-11-07T01:01:28.870Z,55.40
2017-11-07T01:03:58.251Z,58.17
2017-11-07T01:06:26.519Z,52.40
2017-11-07T01:08:54.787Z,62.57
2017-11-07T01:11:23.899Z,59.07
2017-11-07T01:13:52.895Z,54.60
2017-11-07T01:16:21.182Z,42.60
2017-11-07T01:18:50.062Z,57.40
2017-11-07T01:21:18.371Z,42.67
2017-11-07T01:23:47.694Z,37.63
2017-11-07T01:26:15.962Z,58.30
2017-11-07T01:28:44.719Z,41.70
2017-11-07T01:31:12.995Z,45.40
2017-11-07T01:33:42.284Z,43.10
2017-11-07T01:36:11.288Z,37.87
2017-11-07T01:38:40.441Z,39.67
2017-11-07T01:41:09.554Z,33.80
2017-11-07T01:43:37.808Z,33.90
2017-11-07T01:46:06.067Z,31.73
2017-11-07T01:48:35.327Z,35.40
2017-11-07T01:51:05.462Z,49.80
2017-11-07T01:53:33.718Z,34.77
2017-11-07T01:56:02.763Z,34.23
2017-11-07T01:58:31.078Z,34.60
2017-11-07T02:01:00.113Z,31.57
2017-11-07T02:03:28.418Z,34.33
2017-11-07T02:05:57.568Z,32.93
2017-11-07T02:08:26.598Z,35.47
2017-11-07T02:10:54.908Z,32.87
2017-11-07T02:13:23.231Z,26.60
2017-11-07T02:15:52.254Z,37.90
2017-11-07T02:18:20.505Z,34.50
2017-11-07T02:20:48.781Z,35.80
2017-11-07T02:23:17.082Z,33.10
2017-11-07T02:25:45.361Z,34.17
2017-11-07T02:28:13.660Z,28.47
2017-11-07T02:30:42.739Z,33.17
2017-11-07T02:33:11.059Z,33.50
2017-11-07T02:35:39.387Z,28.33
2017-11-07T02:38:07.669Z,39.47
2017-11-07T02:40:35.999Z,32.60
2017-11-07T02:43:04.633Z,28.80
2017-11-07T02:45:32.904Z,36.50
2017-11-07T02:48:01.162Z,26.03
2017-11-07T02:50:30.164Z,32.70
2017-11-07T02:52:58.504Z,33.03
2017-11-07T02:55:26.743Z,33.90
2017-11-07T02:57:55.007Z,30.67
2017-11-07T03:00:23.272Z,27.87
2017-11-07T03:02:51.830Z,24.00
2017-11-07T03:05:20.883Z,25.50
2017-11-07T03:07:49.116Z,30.23
2017-11-07T03:10:17.384Z,21.73
2017-11-07T03:12:46.418Z,23.23
2017-11-07T03:15:14.697Z,20.77
2017-11-07T03:17:42.983Z,21.23
2017-11-07T03:20:11.240Z,23.40
2017-11-07T03:22:40.290Z,27.97
2017-11-07T03:25:09.364Z,24.30
2017-11-07T03:27:37.640Z,17.50
2017-11-07T03:30:05.876Z,19.80
2017-11-07T03:32:34.122Z,23.57
2017-11-07T03:35:03.221Z,20.80
2017-11-07T03:37:31.436Z,21.10
2017-11-07T03:40:00.441Z,17.83
2017-11-07T03:42:28.681Z,23.73
2017-11-07T03:44:58.318Z,23.63
2017-11-07T03:47:26.571Z,24.77
2017-11-07T03:49:56.513Z,19.40
2017-11-07T03:52:24.794Z,20.90
2017-11-07T03:54:53.039Z,21.13
2017-11-07T03:57:22.046Z,19.87
2017-11-07T03:59:50.288Z,15.70
2017-11-07T04:02:18.522Z,22.13
2017-11-07T04:04:46.819Z,22.50
2017-11-07T04:07:15.107Z,21.10
2017-11-07T04:09:44.083Z,16.60
2017-11-07T04:12:12.396Z,17.20
2017-11-07T04:14:40.608Z,16.10
2017-11-07T04:17:09.604Z,21.83
2017-11-07T04:19:37.869Z,16.13
2017-11-07T04:22:06.866Z,20.27
2017-11-07T04:24:35.132Z,24.73
2017-11-07T04:27:04.211Z,20.13
2017-11-07T04:29:32.485Z,19.13
2017-11-07T04:32:00.719Z,32.20
2017-11-07T04:34:29.012Z,19.80
2017-11-07T04:36:57.252Z,21.60
2017-11-07T04:39:25.519Z,18.90
2017-11-07T04:41:54.707Z,24.70
2017-11-07T04:44:23.736Z,19.80
2017-11-07T04:46:51.966Z,19.60
2017-11-07T04:49:20.253Z,17.00
2017-11-07T04:51:48.576Z,21.37
2017-11-07T04:54:16.835Z,20.80
2017-11-07T04:56:45.692Z,25.70
2017-11-07T04:59:14.900Z,21.37
2017-11-07T05:01:43.936Z,26.10
2017-11-07T05:04:12.591Z,17.60
2017-11-07T05:06:41.626Z,20.87
2017-11-07T05:09:10.500Z,22.63
2017-11-07T05:11:38.762Z,23.43
2017-11-07T05:14:07.789Z,27.93
2017-11-07T05:16:36.068Z,22.53
2017-11-07T05:19:04.326Z,27.40
2017-11-07T05:21:33.693Z,19.47
2017-11-07T05:24:01.924Z,27.10
2017-11-07T05:26:30.189Z,26.77
2017-11-07T05:28:58.470Z,35.07
2017-11-07T05:31:26.716Z,34.60
2017-11-07T05:33:55.750Z,24.20
2017-11-07T05:36:24.022Z,18.77
2017-11-07T05:38:52.276Z,19.50
2017-11-07T05:41:24.412Z,24.77
2017-11-07T05:43:56.246Z,25.33
2017-11-07T05:46:25.282Z,30.37
2017-11-07T05:48:54.518Z,31.53
2017-11-07T05:51:22.847Z,33.93
2017-11-07T05:53:51.558Z,34.00
2017-11-07T05:56:19.830Z,30.53
2017-11-07T05:58:48.846Z,41.00
2017-11-07T06:01:17.119Z,118.00
2017-11-07T06:03:45.403Z,29.97
2017-11-07T06:06:13.644Z,25.50
2017-11-07T06:08:42.857Z,32.43
2017-11-07T06:11:12.130Z,28.87
2017-11-07T06:13:41.237Z,31.57
2017-11-07T06:16:09.468Z,30.70
2017-11-07T06:18:37.743Z,23.00
2017-11-07T06:21:06.068Z,30.13
2017-11-07T06:23:34.452Z,40.30
2017-11-07T06:26:02.827Z,40.67
2017-11-07T06:28:31.127Z,42.53
2017-11-07T06:31:00.161Z,34.70
2017-11-07T06:33:28.402Z,41.63
2017-11-07T06:35:56.685Z,33.00
2017-11-07T06:38:25.838Z,35.33
2017-11-07T06:40:54.897Z,41.30
2017-11-07T06:43:23.163Z,46.87
2017-11-07T06:45:51.405Z,44.07
2017-11-07T06:48:19.904Z,32.93
2017-11-07T06:50:48.961Z,45.97
2017-11-07T06:53:17.289Z,24.77
2017-11-07T06:55:47.311Z,18.13
2017-11-07T06:58:15.579Z,60.67
2017-11-07T07:00:44.605Z,31.50
2017-11-07T07:03:13.951Z,20.20
2017-11-07T07:05:42.970Z,31.43
2017-11-07T07:08:12.470Z,24.07
2017-11-07T07:10:41.508Z,25.93
2017-11-07T07:13:10.681Z,22.57
2017-11-07T07:15:38.951Z,15.70
2017-11-07T07:18:07.975Z,15.93
2017-11-07T07:20:36.207Z,20.57
2017-11-07T07:23:05.800Z,32.70
2017-11-07T07:25:34.043Z,26.70
2017-11-07T07:28:02.359Z,13.50
2017-11-07T07:30:30.605Z,29.63
2017-11-07T07:32:58.870Z,39.33
2017-11-07T07:35:27.125Z,21.30
2017-11-07T07:37:56.375Z,17.47
2017-11-07T07:40:25.046Z,20.83
2017-11-07T07:42:55.020Z,18.70
2017-11-07T07:45:24.096Z,20.00
2017-11-07T07:47:52.358Z,23.93
2017-11-07T07:50:20.625Z,22.23
2017-11-07T07:52:48.883Z,18.33
2017-11-07T07:55:17.148Z,34.73
2017-11-07T07:57:45.404Z,26.50
2017-11-07T08:00:14.411Z,18.93
2017-11-07T08:02:42.711Z,13.63
2017-11-07T08:05:11.040Z,17.87
2017-11-07T08:07:40.070Z,45.83
2017-11-07T08:10:08.329Z,16.20
2017-11-07T08:12:37.437Z,19.43
2017-11-07T08:15:05.705Z,19.17
2017-11-07T08:17:34.738Z,20.80
2017-11-07T08:20:02.975Z,18.87
2017-11-07T08:22:31.234Z,19.23
2017-11-07T08:25:00.102Z,15.40
2017-11-07T08:27:28.381Z,28.77
2017-11-07T08:29:56.625Z,33.67
2017-11-07T08:32:24.924Z,20.63
2017-11-07T08:34:53.171Z,22.73
2017-11-07T08:37:21.452Z,27.00
2017-11-07T08:39:49.726Z,26.03
2017-11-07T08:42:18.008Z,13.23
2017-11-07T08:44:46.242Z,12.43
2017-11-07T08:47:15.265Z,17.13
2017-11-07T08:49:43.556Z,20.77
2017-11-07T08:52:11.789Z,31.90
2017-11-07T08:54:40.100Z,28.50
2017-11-07T08:57:09.961Z,26.40
2017-11-07T08:59:38.220Z,27.33
2017-11-07T09:02:06.491Z,34.43
2017-11-07T09:04:34.753Z,21.70
2017-11-07T09:07:03.895Z,28.70
2017-11-07T09:09:32.911Z,26.00
2017-11-07T09:12:01.203Z,33.40
2017-11-07T09:14:30.406Z,24.93
2017-11-07T09:17:01.632Z,22.90
2017-11-07T09:19:33.323Z,34.10
2017-11-07T09:22:03.520Z,28.43
2017-11-07T09:24:32.612Z,18.97
2017-11-07T09:27:04.235Z,18.13
2017-11-07T09:29:33.509Z,21.60
2017-11-07T09:32:01.791Z,18.17
2017-11-07T09:34:30.875Z,29.13
2017-11-07T09:36:59.861Z,14.20
2017-11-07T09:39:28.172Z,15.87
2017-11-07T09:41:57.287Z,18.53
2017-11-07T09:44:25.732Z,15.53
2017-11-07T09:46:53.979Z,12.30
2017-11-07T09:49:23.002Z,20.37
2017-11-07T09:51:52.450Z,15.40
2017-11-07T09:54:20.725Z,13.23
2017-11-07T09:56:48.960Z,16.97
2017-11-07T09:59:18.622Z,21.77
2017-11-07T10:01:46.919Z,22.53
2017-11-07T10:04:17.050Z,21.10
2017-11-07T10:06:47.720Z,22.00
2017-11-07T10:09:16.146Z,19.90
2017-11-07T10:11:45.336Z,21.23
2017-11-07T10:14:13.592Z,18.77
2017-11-07T10:16:42.164Z,37.23
2017-11-07T10:19:11.060Z,19.93
2017-11-07T10:21:39.341Z,17.23
2017-11-07T10:24:07.638Z,22.57
2017-11-07T10:26:35.929Z,15.00
2017-11-07T10:29:04.150Z,29.60
2017-11-07T10:31:32.689Z,21.93
2017-11-07T10:34:00.909Z,29.47
2017-11-07T10:36:30.791Z,39.43
2017-11-07T10:39:00.888Z,30.93
2017-11-07T10:41:29.951Z,32.70
2017-11-07T10:43:58.292Z,31.13
2017-11-07T10:46:26.567Z,29.00
2017-11-07T10:48:55.641Z,24.40
2017-11-07T10:51:24.771Z,30.40
2017-11-07T10:53:53.067Z,24.80
2017-11-07T10:56:21.338Z,20.30
2017-11-07T10:58:49.674Z,19.17
2017-11-07T11:01:17.955Z,20.37
2017-11-07T11:03:46.984Z,25.13
2017-11-07T11:06:15.270Z,21.90
2017-11-07T11:08:43.522Z,16.33
2017-11-07T11:11:12.114Z,20.87
2017-11-07T11:13:41.206Z,21.93
2017-11-07T11:16:10.298Z,27.67
2017-11-07T11:18:39.327Z,22.93
2017-11-07T11:21:07.614Z,23.57
2017-11-07T11:23:35.838Z,24.70
2017-11-07T11:26:04.119Z,21.97
2017-11-07T11:28:33.144Z,25.67
2017-11-07T11:31:01.435Z,20.13
2017-11-07T11:33:29.766Z,24.50
2017-11-07T11:35:58.016Z,25.13
2017-11-07T11:38:26.337Z,34.27
2017-11-07T11:40:54.572Z,32.20
2017-11-07T11:43:22.876Z,26.97
2017-11-07T11:45:51.937Z,20.20
2017-11-07T11:48:20.198Z,22.70
2017-11-07T11:50:48.463Z,26.93
2017-11-07T11:53:16.730Z,22.93
2017-11-07T11:55:45.011Z,23.80
2017-11-07T11:58:13.263Z,29.80
2017-11-07T12:00:42.321Z,25.60
2017-11-07T12:03:10.589Z,26.43
2017-11-07T12:05:38.900Z,27.77
2017-11-07T12:08:07.170Z,24.13
2017-11-07T12:10:35.522Z,23.67
2017-11-07T12:13:04.160Z,21.07
2017-11-07T12:15:32.460Z,23.90
2017-11-07T12:18:01.676Z,24.10
2017-11-07T12:20:29.998Z,26.40
2017-11-07T12:22:58.353Z,24.67
2017-11-07T12:25:28.410Z,32.30
2017-11-07T12:27:57.584Z,13.73
2017-11-07T12:30:25.875Z,17.20
2017-11-07T12:32:54.133Z,14.70
2017-11-07T12:35:22.812Z,18.33
2017-11-07T12:37:51.103Z,16.77
2017-11-07T12:40:19.767Z,17.80
2017-11-07T12:42:48.183Z,24.43
2017-11-07T12:45:17.280Z,28.67
2017-11-07T12:47:45.548Z,24.90
2017-11-07T12:50:26.713Z,34.50
2017-11-07T12:52:55.002Z,43.63
2017-11-07T12:55:24.658Z,26.00
2017-11-07T12:57:53.706Z,25.77
2017-11-07T13:00:21.978Z,21.70
2017-11-07T13:02:50.293Z,24.47
2017-11-07T13:05:18.771Z,23.43
2017-11-07T13:07:47.792Z,21.20
2017-11-07T13:10:16.819Z,25.83
2017-11-07T13:12:45.130Z,26.20
2017-11-07T13:15:13.396Z,28.40
2017-11-07T13:17:42.570Z,31.37
2017-11-07T13:20:10.848Z,21.67
2017-11-07T13:22:39.115Z,21.43
2017-11-07T13:25:07.491Z,29.20
2017-11-07T13:27:35.918Z,27.97
2017-11-07T13:30:04.147Z,31.13
2017-11-07T13:32:32.440Z,22.53
2017-11-07T13:35:00.703Z,20.10
2017-11-07T13:37:28.988Z,30.33
2017-11-07T13:39:57.264Z,27.87
2017-11-07T13:42:26.300Z,18.53
2017-11-07T13:44:55.848Z,11.33
2017-11-07T13:47:24.139Z,12.97
2017-11-07T13:49:53.762Z,12.47
2017-11-07T13:52:22.178Z,11.47
2017-11-07T13:54:51.267Z,10.83
2017-11-07T13:57:20.304Z,17.97
2017-11-07T13:59:48.591Z,14.33
2017-11-07T14:02:18.559Z,13.93
2017-11-07T14:04:49.005Z,16.53
2017-11-07T14:07:18.499Z,11.80
2017-11-07T14:09:47.574Z,12.00
2017-11-07T14:12:16.085Z,18.37
2017-11-07T14:14:45.137Z,15.60
2017-11-07T14:17:14.301Z,20.20
2017-11-07T14:19:42.656Z,10.70
2017-11-07T14:22:10.992Z,13.97
2017-11-07T14:24:39.241Z,11.90
2017-11-07T14:27:07.527Z,16.43
2017-11-07T14:29:36.550Z,13.50
2017-11-07T14:32:05.503Z,20.40
2017-11-07T14:34:33.769Z,18.27
2017-11-07T14:37:02.070Z,15.63
2017-11-07T14:39:30.615Z,18.87
2017-11-07T14:41:58.908Z,15.77
2017-11-07T14:44:32.233Z,15.53
2017-11-07T14:47:02.360Z,27.27
2017-11-07T14:49:31.433Z,38.60
2017-11-07T14:52:00.200Z,43.93
2017-11-07T14:54:29.270Z,30.20
2017-11-07T14:56:57.603Z,33.20
2017-11-07T14:59:26.779Z,21.00
2017-11-07T15:01:55.139Z,27.27
2017-11-07T15:04:23.842Z,23.37
2017-11-07T15:06:55.908Z,31.63
2017-11-07T15:09:24.904Z,19.53
2017-11-07T15:11:53.859Z,15.87
2017-11-07T15:14:23.299Z,22.03
2017-11-07T15:16:51.631Z,13.83
2017-11-07T15:19:20.641Z,36.40
2017-11-07T15:21:51.726Z,20.73
2017-11-07T15:24:21.822Z,20.67
2017-11-07T15:26:51.472Z,23.00
2017-11-07T15:29:21.263Z,23.40
2017-11-07T15:31:51.354Z,29.63
2017-11-07T15:34:20.412Z,31.70
2017-11-07T15:36:51.412Z,22.00
2017-11-07T15:39:19.698Z,20.67
2017-11-07T15:41:49.425Z,31.30
2017-11-07T15:44:21.423Z,30.83
2017-11-07T15:47:03.190Z,19.17
2017-11-07T15:49:32.522Z,19.37
2017-11-07T15:52:01.600Z,41.30
2017-11-07T15:54:29.863Z,31.80
2017-11-07T15:56:58.937Z,26.80
2017-11-07T15:59:28.594Z,31.63
2017-11-07T16:01:56.921Z,28.40
2017-11-07T16:04:26.544Z,29.47
2017-11-07T16:06:54.812Z,35.37
2017-11-07T16:09:24.177Z,26.47
2017-11-07T16:11:52.435Z,26.97
2017-11-07T16:14:23.475Z,29.93
2017-11-07T16:16:52.077Z,35.57
2017-11-07T16:19:21.544Z,36.20
2017-11-07T16:21:50.530Z,23.00
2017-11-07T16:24:19.642Z,29.23
2017-11-07T16:26:48.748Z,24.30
2017-11-07T16:29:17.022Z,28.77
2017-11-07T16:31:45.318Z,25.53
2017-11-07T16:34:14.404Z,24.70
2017-11-07T16:36:43.768Z,24.43
2017-11-07T16:39:12.049Z,35.23
2017-11-07T16:41:41.059Z,40.67
2017-11-07T16:44:10.447Z,32.87
2017-11-07T16:46:38.911Z,29.70
2017-11-07T16:49:07.199Z,32.17
2017-11-07T16:51:36.266Z,31.57
2017-11-07T16:54:04.519Z,28.90
2017-11-07T16:56:32.948Z,43.80
2017-11-07T16:59:01.233Z,32.37
2017-11-07T17:01:30.437Z,37.63
2017-11-07T17:03:58.722Z,47.77
2017-11-07T17:06:27.769Z,31.23
2017-11-07T17:08:56.084Z,32.00
2017-11-07T17:11:25.164Z,32.77
2017-11-07T17:13:53.433Z,28.03
2017-11-07T17:16:22.548Z,32.40
2017-11-07T17:18:52.021Z,30.00
2017-11-07T17:21:21.683Z,37.97
2017-11-07T17:23:50.740Z,38.90
2017-11-07T17:26:18.994Z,31.17
2017-11-07T17:28:47.297Z,26.63
2017-11-07T17:31:15.606Z,28.50
2017-11-07T17:33:44.634Z,30.63
2017-11-07T17:36:13.140Z,22.70
2017-11-07T17:38:42.182Z,28.20
2017-11-07T17:41:10.442Z,29.73
2017-11-07T17:43:38.912Z,25.27
2017-11-07T17:46:07.204Z,36.43
2017-11-07T17:48:36.215Z,26.60
2017-11-07T17:51:05.078Z,21.73
2017-11-07T17:53:33.393Z,27.93
2017-11-07T17:56:02.763Z,26.33
2017-11-07T17:58:31.058Z,28.30
2017-11-07T18:01:00.149Z,23.80
2017-11-07T18:03:28.440Z,36.80
2017-11-07T18:05:56.797Z,31.80
2017-11-07T18:08:25.072Z,24.37
2017-11-07T18:10:54.171Z,29.63
2017-11-07T18:13:22.452Z,27.37
2017-11-07T18:15:50.751Z,26.93
2017-11-07T18:18:19.090Z,56.80
2017-11-07T18:20:47.675Z,35.70
2017-11-07T18:23:16.312Z,32.40
2017-11-07T18:25:44.613Z,44.50
2017-11-07T18:28:13.782Z,36.93
2017-11-07T18:30:42.805Z,36.07
2017-11-07T18:33:11.136Z,27.53
2017-11-07T18:35:40.193Z,32.50
2017-11-07T18:38:08.498Z,29.03
2017-11-07T18:40:37.604Z,29.27
2017-11-07T18:43:06.656Z,30.90
2017-11-07T18:45:34.972Z,32.57
2017-11-07T18:48:03.260Z,37.50
2017-11-07T18:50:33.643Z,37.77
2017-11-07T18:53:02.059Z,38.17
2017-11-07T18:55:31.049Z,35.97
2017-11-07T18:57:59.348Z,37.13
2017-11-07T19:00:29.246Z,41.83
2017-11-07T19:02:58.339Z,46.07
2017-11-07T19:05:27.027Z,39.70
2017-11-07T19:07:56.177Z,34.43
2017-11-07T19:10:24.518Z,36.07
2017-11-07T19:12:52.820Z,37.07
2017-11-07T19:15:21.122Z,29.33
2017-11-07T19:17:49.405Z,49.83
2017-11-07T19:20:17.713Z,40.37
2017-11-07T19:22:45.983Z,40.00
2017-11-07T19:25:15.417Z,49.87
2017-11-07T19:27:43.705Z,53.70
2017-11-07T19:30:12.064Z,51.27
2017-11-07T19:32:41.112Z,40.83
2017-11-07T19:35:09.453Z,43.27
2017-11-07T19:37:38.572Z,41.37
2017-11-07T19:40:07.075Z,42.87
2017-11-07T19:42:37.697Z,54.77
2017-11-07T19:45:06.064Z,43.83
2017-11-07T19:47:35.102Z,41.20
2017-11-07T19:50:03.496Z,45.80
2017-11-07T19:52:31.747Z,42.87
2017-11-07T19:55:00.163Z,44.37
2017-11-07T19:57:28.568Z,53.17
2017-11-07T19:59:56.873Z,47.60
2017-11-07T20:02:26.822Z,49.80
2017-11-07T20:04:58.566Z,50.60
2017-11-07T20:07:27.189Z,46.70
2017-11-07T20:09:56.251Z,50.07
2017-11-07T20:12:24.634Z,54.80
2017-11-07T20:14:52.988Z,50.10
2017-11-07T20:17:21.471Z,62.50
2017-11-07T20:19:50.097Z,52.40
2017-11-07T20:22:20.124Z,54.43
2017-11-07T20:24:49.084Z,45.57
2017-11-07T20:27:19.100Z,58.03
2017-11-07T20:29:48.240Z,48.70
2017-11-07T20:32:18.130Z,50.47
2017-11-07T20:34:48.477Z,52.33
2017-11-07T20:37:16.860Z,48.27
2017-11-07T20:39:46.881Z,52.30
2017-11-07T20:42:15.166Z,50.83
2017-11-07T20:44:44.377Z,51.30
2017-11-07T20:47:13.133Z,40.80
2017-11-07T20:49:41.399Z,62.27
2017-11-07T20:52:10.589Z,47.57
2017-11-07T20:54:39.749Z,48.20
2017-11-07T20:57:09.567Z,44.37
2017-11-07T20:59:38.917Z,51.20
2017-11-07T21:02:08.532Z,61.90
2017-11-07T21:04:37.804Z,49.20
2017-11-07T21:07:06.093Z,55.87
2017-11-07T21:09:35.250Z,46.10
2017-11-07T21:12:03.598Z,55.67
2017-11-07T21:14:34.331Z,49.30
2017-11-07T21:17:04.810Z,53.13
2017-11-07T21:19:36.825Z,49.23
2017-11-07T21:22:05.456Z,50.17
2017-11-07T21:24:35.597Z,51.60
2017-11-07T21:27:04.894Z,51.70
2017-11-07T21:29:33.922Z,54.50
2017-11-07T21:32:02.305Z,59.40
2017-11-07T21:34:30.581Z,49.17
2017-11-07T21:37:00.022Z,48.67
2017-11-07T21:39:29.261Z,51.80
2017-11-07T21:41:58.379Z,48.63
2017-11-07T21:44:28.005Z,43.27
2017-11-07T21:46:57.036Z,50.90
2017-11-07T21:49:25.336Z,52.17
2017-11-07T21:51:53.593Z,44.50
2017-11-07T21:54:24.635Z,40.30
2017-11-07T21:56:53.498Z,50.83
2017-11-07T21:59:22.618Z,48.73
2017-11-07T22:01:50.933Z,47.20
2017-11-07T22:04:19.416Z,48.23
2017-11-07T22:06:47.779Z,44.27
2017-11-07T22:09:16.251Z,47.97
2017-11-07T22:11:44.574Z,40.97
2017-11-07T22:14:13.676Z,46.27
2017-11-07T22:16:47.711Z,48.67
2017-11-07T22:19:15.991Z,42.43
2017-11-07T22:21:44.728Z,42.63
2017-11-07T22:24:13.014Z,38.63
2017-11-07T22:26:41.338Z,37.13
2017-11-07T22:29:10.360Z,35.70
2017-11-07T22:31:38.615Z,38.80
2017-11-07T22:34:06.989Z,42.20
2017-11-07T22:36:35.239Z,41.30
2017-11-07T22:39:04.269Z,44.20
2017-11-07T22:41:32.542Z,40.13
2017-11-07T22:44:00.897Z,37.30
2017-11-07T22:46:29.904Z,36.97
2017-11-07T22:48:59.151Z,40.17
2017-11-07T22:51:28.349Z,32.13
2017-11-07T22:53:57.400Z,37.17
2017-11-07T22:56:25.730Z,36.70
2017-11-07T22:58:54.667Z,37.83
2017-11-07T23:01:23.710Z,32.57
2017-11-07T23:03:52.005Z,33.37
2017-11-07T23:06:20.565Z,35.90
2017-11-07T23:08:48.849Z,32.90
2017-11-07T23:11:17.140Z,37.17
2017-11-07T23:13:47.210Z,34.50
2017-11-07T23:16:15.476Z,39.67
2017-11-07T23:18:43.762Z,41.20
2017-11-07T23:21:12.791Z,38.90
2017-11-07T23:23:41.103Z,39.77
2017-11-07T23:26:09.388Z,39.40
2017-11-07T23:28:38.445Z,41.40
2017-11-07T23:31:07.506Z,39.80
2017-11-07T23:33:35.765Z,45.03
2017-11-07T23:36:04.787Z,46.50
2017-11-07T23:38:33.078Z,42.13
2017-11-07T23:41:01.339Z,41.23
2017-11-07T23:43:29.599Z,39.00
2017-11-07T23:45:57.908Z,43.60
2017-11-07T23:48:26.155Z,40.40
2017-11-07T23:50:55.199Z,41.57
2017-11-07T23:53:23.496Z,36.87
2017-11-07T23:55:51.757Z,40.50
2017-11-07T23:58:19.990Z,38.63
